Time;durP1;ratioP1;P1;durP2;ratioP2;P2;SDS_P1;SDS_P2;PMS_P1;PMS_P2;Temp;Humidity;BMP_temperature;BMP_pressure;BME280_temperature;BME280_humidity;BME280_pressure;Samples;Min_cycle;Max_cycle;Signal;HPM_P1;HPM_P2
2021/07/24 00:01:59;;;;;;;8.57;6.85;;;;;;;;;;143744;644;45020;-55
2021/07/24 00:04:26;;;;;;;11.38;6.40;;;;;;;;;;143736;595;46022;-56
2021/07/24 00:06:53;;;;;;;9.60;5.70;;;;;;;;;;143740;665;46020;-56
2021/07/24 00:09:20;;;;;;;11.27;6.07;;;;;;;;;;143741;591;46012;-56
2021/07/24 00:11:47;;;;;;;7.90;6.40;;;;;;;;;;143746;583;45021;-55
2021/07/24 00:14:14;;;;;;;9.85;6.85;;;;;;;;;;143742;921;46023;-55
2021/07/24 00:16:41;;;;;;;10.52;6.90;;;;;;;;;;143741;574;46020;-55
2021/07/24 00:19:08;;;;;;;11.52;7.12;;;;;;;;;;143740;566;46012;-56
2021/07/24 00:21:35;;;;;;;12.37;7.68;;;;;;;;;;143744;594;46021;-55
2021/07/24 00:24:02;;;;;;;14.60;7.55;;;;;;;;;;143743;719;46020;-55
2021/07/24 00:26:29;;;;;;;9.98;5.95;;;;;;;;;;143740;585;46918;-55
2021/07/24 00:28:56;;;;;;;10.48;6.85;;;;;;;;;;143737;619;46012;-55
2021/07/24 00:31:22;;;;;;;10.85;6.65;;;;;;;;;;143744;564;46020;-55
2021/07/24 00:33:49;;;;;;;8.93;6.55;;;;;;;;;;143743;588;46022;-55
2021/07/24 00:36:17;;;;;;;8.38;6.47;;;;;;;;;;143740;632;46919;-55
2021/07/24 00:38:44;;;;;;;10.70;6.60;;;;;;;;;;143742;578;46012;-56
2021/07/24 00:41:42;;;;;;;11.95;6.60;;;;;;;;;;143740;640;45021;-55
2021/07/24 00:44:10;;;;;;;13.48;7.43;;;;;;;;;;143745;639;46023;-55
2021/07/24 00:46:38;;;;;;;10.52;6.57;;;;;;;;;;143741;573;46020;-54
2021/07/24 00:49:07;;;;;;;11.90;6.93;;;;;;;;;;143742;589;46011;-55
2021/07/24 00:51:34;;;;;;;9.80;6.93;;;;;;;;;;143743;605;45023;-55
2021/07/24 00:54:04;;;;;;;9.35;6.72;;;;;;;;;;143737;596;46018;-55
2021/07/24 00:56:33;;;;;;;9.90;6.47;;;;;;;;;;143742;576;46023;-55
2021/07/24 00:59:00;;;;;;;11.23;7.18;;;;;;;;;;143742;602;46010;-56
2021/07/24 01:01:27;;;;;;;14.45;8.52;;;;;;;;;;143744;593;45022;-55
2021/07/24 01:03:54;;;;;;;11.73;6.87;;;;;;;;;;143745;610;46019;-55
2021/07/24 01:06:22;;;;;;;10.70;6.45;;;;;;;;;;143740;640;46023;-55
2021/07/24 01:08:50;;;;;;;7.87;6.15;;;;;;;;;;143741;612;46010;-55
2021/07/24 01:11:17;;;;;;;9.23;6.50;;;;;;;;;;143745;602;45023;-56
2021/07/24 01:13:45;;;;;;;8.88;5.90;;;;;;;;;;143744;616;46021;-55
2021/07/24 01:16:12;;;;;;;15.07;6.28;;;;;;;;;;143740;623;46022;-55
2021/07/24 01:18:39;;;;;;;7.45;6.07;;;;;;;;;;143737;575;46010;-55
2021/07/24 01:21:09;;;;;;;10.35;6.72;;;;;;;;;;143742;572;45023;-55
2021/07/24 01:23:38;;;;;;;11.88;7.37;;;;;;;;;;143743;577;46020;-55
2021/07/24 01:26:05;;;;;;;10.73;6.95;;;;;;;;;;143740;610;46023;-55
2021/07/24 01:28:37;;;;;;;12.90;7.70;;;;;;;;;;143741;564;46010;-55
2021/07/24 01:31:06;;;;;;;9.35;7.28;;;;;;;;;;143745;594;45022;-55
2021/07/24 01:33:34;;;;;;;8.90;6.20;;;;;;;;;;143744;591;46020;-55
2021/07/24 01:36:01;;;;;;;9.60;6.30;;;;;;;;;;143740;602;46023;-55
2021/07/24 01:38:30;;;;;;;7.78;6.20;;;;;;;;;;143742;600;46010;-55
2021/07/24 01:40:57;;;;;;;8.25;6.60;;;;;;;;;;143746;575;46022;-55
2021/07/24 01:43:24;;;;;;;9.32;6.28;;;;;;;;;;143735;622;47018;-56
2021/07/24 01:45:51;;;;;;;9.45;6.37;;;;;;;;;;143740;582;46022;-55
2021/07/24 01:48:29;;;;;;;9.20;6.75;;;;;;;;;;143743;604;46011;-56
2021/07/24 01:53:44;;;;;;;8.07;6.28;;;;;;;;;;143743;659;47018;-55
2021/07/24 01:56:12;;;;;;;14.73;7.30;;;;;;;;;;143740;570;46023;-55
2021/07/24 01:58:39;;;;;;;14.10;7.50;;;;;;;;;;143742;644;46010;-55
2021/07/24 02:01:07;;;;;;;16.35;7.68;;;;;;;;;;143745;563;45022;-55
2021/07/24 02:04:09;;;;;;;21.35;7.53;;;;;;;;;;143743;609;46020;-55
2021/07/24 02:06:36;;;;;;;12.63;7.25;;;;;;;;;;143741;612;46022;-55
2021/07/24 02:09:03;;;;;;;12.00;7.47;;;;;;;;;;143736;617;46010;-55
2021/07/24 02:11:31;;;;;;;13.35;7.62;;;;;;;;;;143743;579;45023;-55
2021/07/24 02:13:58;;;;;;;16.33;7.85;;;;;;;;;;143743;585;46021;-54
2021/07/24 02:16:25;;;;;;;15.70;8.00;;;;;;;;;;143741;606;46022;-55
2021/07/24 02:18:55;;;;;;;12.35;6.85;;;;;;;;;;143739;700;47018;-55
2021/07/24 02:21:22;;;;;;;14.75;7.85;;;;;;;;;;143744;639;46022;-56
2021/07/24 02:23:49;;;;;;;15.32;8.20;;;;;;;;;;143743;583;46018;-55
2021/07/24 02:26:16;;;;;;;12.23;7.22;;;;;;;;;;143742;612;46023;-55
2021/07/24 02:28:43;;;;;;;13.35;7.30;;;;;;;;;;143741;625;46010;-55
2021/07/24 02:31:10;;;;;;;16.08;8.50;;;;;;;;;;143736;729;46022;-55
2021/07/24 02:33:37;;;;;;;19.80;8.48;;;;;;;;;;143736;564;46020;-55
2021/07/24 02:36:04;;;;;;;16.73;10.25;;;;;;;;;;143742;593;46023;-55
2021/07/24 02:38:31;;;;;;;16.83;8.63;;;;;;;;;;143747;837;46010;-56
2021/07/24 02:40:58;;;;;;;22.58;10.02;;;;;;;;;;143743;575;45023;-55
2021/07/24 02:43:25;;;;;;;16.55;9.70;;;;;;;;;;143743;593;46021;-55
2021/07/24 02:45:52;;;;;;;18.45;9.52;;;;;;;;;;143741;642;46022;-55
2021/07/24 02:48:19;;;;;;;18.23;8.48;;;;;;;;;;143743;609;46011;-56
2021/07/24 02:50:47;;;;;;;28.05;9.40;;;;;;;;;;143744;628;45023;-54
2021/07/24 02:53:14;;;;;;;17.52;8.38;;;;;;;;;;143743;614;46020;-56
2021/07/24 02:55:41;;;;;;;20.27;9.05;;;;;;;;;;143740;613;46023;-56
2021/07/24 02:58:08;;;;;;;12.95;8.70;;;;;;;;;;143736;587;46010;-55
2021/07/24 03:00:35;;;;;;;12.18;8.10;;;;;;;;;;143745;642;45022;-55
2021/07/24 03:03:03;;;;;;;12.32;8.18;;;;;;;;;;143742;593;46020;-55
2021/07/24 03:05:29;;;;;;;20.00;9.48;;;;;;;;;;143737;678;46022;-55
2021/07/24 03:07:56;;;;;;;15.05;8.07;;;;;;;;;;143740;591;46010;-55
2021/07/24 03:10:24;;;;;;;13.30;7.68;;;;;;;;;;143742;583;45023;-56
2021/07/24 03:12:51;;;;;;;13.27;8.38;;;;;;;;;;143739;600;47047;-55
2021/07/24 03:15:18;;;;;;;16.50;8.40;;;;;;;;;;143736;631;46920;-55
2021/07/24 03:17:45;;;;;;;12.93;8.15;;;;;;;;;;143740;640;46010;-55
2021/07/24 03:20:12;;;;;;;17.20;8.85;;;;;;;;;;143742;631;45023;-56
2021/07/24 03:22:39;;;;;;;14.05;8.35;;;;;;;;;;143734;613;46020;-55
2021/07/24 03:25:07;;;;;;;13.50;7.95;;;;;;;;;;143739;580;46023;-56
2021/07/24 03:27:35;;;;;;;15.73;8.85;;;;;;;;;;143739;594;46010;-55
2021/07/24 03:30:02;;;;;;;17.67;7.80;;;;;;;;;;143741;569;46022;-55
2021/07/24 03:32:29;;;;;;;21.60;10.32;;;;;;;;;;143741;619;46020;-55
2021/07/24 03:34:56;;;;;;;23.67;10.05;;;;;;;;;;143737;676;46023;-55
2021/07/24 03:37:23;;;;;;;25.35;11.30;;;;;;;;;;143740;588;46010;-55
2021/07/24 03:39:50;;;;;;;29.40;10.18;;;;;;;;;;143743;572;45023;-55
2021/07/24 03:42:17;;;;;;;24.58;11.73;;;;;;;;;;143739;578;47018;-55
2021/07/24 03:44:44;;;;;;;24.25;9.75;;;;;;;;;;143738;576;46022;-55
2021/07/24 03:47:11;;;;;;;15.95;8.30;;;;;;;;;;143734;591;46010;-55
2021/07/24 03:49:38;;;;;;;13.62;7.28;;;;;;;;;;143742;604;46023;-54
2021/07/24 03:52:06;;;;;;;16.00;7.97;;;;;;;;;;143740;616;46020;-55
2021/07/24 03:54:33;;;;;;;18.80;8.43;;;;;;;;;;143739;593;46022;-55
2021/07/24 03:57:00;;;;;;;21.25;9.25;;;;;;;;;;143740;688;46010;-55
2021/07/24 03:59:27;;;;;;;16.40;8.25;;;;;;;;;;143742;645;45022;-56
2021/07/24 04:01:57;;;;;;;20.23;10.18;;;;;;;;;;143741;575;46020;-55
2021/07/24 04:04:24;;;;;;;16.75;9.90;;;;;;;;;;143736;570;46023;-56
2021/07/24 04:06:53;;;;;;;29.00;11.12;;;;;;;;;;143740;630;46010;-54
2021/07/24 04:09:21;;;;;;;24.70;11.02;;;;;;;;;;143740;565;46022;-54
2021/07/24 04:11:49;;;;;;;24.00;10.60;;;;;;;;;;143735;630;46021;-55
2021/07/24 04:14:16;;;;;;;23.50;10.20;;;;;;;;;;143739;710;46022;-55
2021/07/24 04:16:43;;;;;;;16.52;9.25;;;;;;;;;;143737;642;46010;-54
2021/07/24 04:19:10;;;;;;;28.33;12.07;;;;;;;;;;143742;705;45023;-55
2021/07/24 04:21:37;;;;;;;25.20;11.12;;;;;;;;;;143742;754;46020;-55
2021/07/24 04:24:04;;;;;;;15.23;9.73;;;;;;;;;;143738;672;46022;-54
2021/07/24 04:26:32;;;;;;;18.00;9.27;;;;;;;;;;143739;703;46010;-54
2021/07/24 04:28:59;;;;;;;23.12;10.20;;;;;;;;;;143742;569;45022;-55
2021/07/24 04:31:26;;;;;;;16.80;9.48;;;;;;;;;;143740;604;47020;-55
2021/07/24 04:33:53;;;;;;;27.70;10.57;;;;;;;;;;143738;565;46023;-55
2021/07/24 04:36:20;;;;;;;19.65;9.73;;;;;;;;;;143734;761;46010;-55
2021/07/24 04:38:47;;;;;;;29.25;10.65;;;;;;;;;;143744;838;45022;-55
2021/07/24 04:41:17;;;;;;;28.75;11.05;;;;;;;;;;143740;585;46021;-55
2021/07/24 04:43:45;;;;;;;19.02;10.00;;;;;;;;;;143738;580;46022;-54
2021/07/24 04:46:12;;;;;;;16.92;9.25;;;;;;;;;;143738;622;46010;-54
2021/07/24 04:48:39;;;;;;;21.37;9.73;;;;;;;;;;143742;682;45023;-55
2021/07/24 04:51:08;;;;;;;18.98;9.38;;;;;;;;;;143741;605;46018;-54
2021/07/24 04:53:36;;;;;;;22.10;9.13;;;;;;;;;;143738;571;46022;-54
2021/07/24 04:56:06;;;;;;;21.70;9.30;;;;;;;;;;143740;599;46010;-55
2021/07/24 04:58:35;;;;;;;16.00;8.70;;;;;;;;;;143744;602;46022;-54
2021/07/24 05:01:02;;;;;;;18.58;8.07;;;;;;;;;;143734;614;46020;-54
2021/07/24 05:03:31;;;;;;;18.25;7.87;;;;;;;;;;143740;572;46023;-53
2021/07/24 05:06:00;;;;;;;13.68;7.62;;;;;;;;;;143739;579;46010;-55
2021/07/24 05:08:27;;;;;;;16.35;8.20;;;;;;;;;;143742;603;46022;-54
2021/07/24 05:10:54;;;;;;;19.83;9.98;;;;;;;;;;143742;633;46018;-53
2021/07/24 05:13:21;;;;;;;19.80;9.02;;;;;;;;;;143737;602;46022;-53
2021/07/24 05:15:48;;;;;;;14.60;8.07;;;;;;;;;;143741;615;46010;-54
2021/07/24 05:18:15;;;;;;;16.10;8.57;;;;;;;;;;143743;606;45023;-53
2021/07/24 05:20:42;;;;;;;15.27;8.60;;;;;;;;;;143740;569;46020;-54
2021/07/24 05:23:10;;;;;;;17.67;7.78;;;;;;;;;;143740;589;46022;-54
2021/07/24 05:25:38;;;;;;;24.12;8.68;;;;;;;;;;143731;586;46019;-54
2021/07/24 05:28:05;;;;;;;21.40;9.43;;;;;;;;;;143742;590;46022;-54
2021/07/24 05:30:33;;;;;;;13.85;7.82;;;;;;;;;;143741;628;46020;-54
2021/07/24 05:33:00;;;;;;;12.30;8.02;;;;;;;;;;143738;581;46023;-54
2021/07/24 05:35:27;;;;;;;17.85;7.82;;;;;;;;;;143739;587;46010;-54
2021/07/24 05:37:54;;;;;;;20.95;8.43;;;;;;;;;;143741;579;45022;-54
2021/07/24 05:40:21;;;;;;;12.65;7.03;;;;;;;;;;143741;615;46020;-54
2021/07/24 05:42:49;;;;;;;9.25;6.25;;;;;;;;;;143737;569;46022;-55
2021/07/24 05:45:16;;;;;;;12.93;8.23;;;;;;;;;;143738;583;46010;-53
2021/07/24 05:47:43;;;;;;;15.18;8.10;;;;;;;;;;143742;589;45023;-53
2021/07/24 05:50:10;;;;;;;12.27;7.62;;;;;;;;;;143734;610;46020;-54
2021/07/24 05:52:37;;;;;;;13.80;7.60;;;;;;;;;;143738;624;46022;-54
2021/07/24 05:55:05;;;;;;;13.25;6.80;;;;;;;;;;143740;624;46010;-53
2021/07/24 05:57:32;;;;;;;13.35;7.35;;;;;;;;;;143739;590;46022;-53
2021/07/24 05:59:59;;;;;;;11.12;6.75;;;;;;;;;;143741;571;47018;-55
2021/07/24 06:02:26;;;;;;;8.25;5.85;;;;;;;;;;143737;608;46023;-53
2021/07/24 06:04:53;;;;;;;9.95;6.82;;;;;;;;;;143740;579;46010;-54
2021/07/24 06:07:20;;;;;;;17.55;6.57;;;;;;;;;;143742;622;45022;-54
2021/07/24 06:09:47;;;;;;;9.45;5.95;;;;;;;;;;143741;590;47018;-53
2021/07/24 06:12:14;;;;;;;10.55;6.70;;;;;;;;;;143738;575;46022;-54
2021/07/24 06:14:41;;;;;;;10.55;6.05;;;;;;;;;;143734;591;46010;-54
2021/07/24 06:17:08;;;;;;;10.35;6.50;;;;;;;;;;143744;570;45023;-53
2021/07/24 06:19:35;;;;;;;7.60;5.95;;;;;;;;;;143741;601;47018;-54
2021/07/24 06:22:02;;;;;;;11.38;6.50;;;;;;;;;;143737;569;46022;-55
2021/07/24 06:24:29;;;;;;;13.52;6.85;;;;;;;;;;143737;702;46019;-55
2021/07/24 06:26:56;;;;;;;11.68;6.75;;;;;;;;;;143742;575;45023;-55
2021/07/24 06:29:23;;;;;;;11.88;6.40;;;;;;;;;;143741;565;46020;-55
2021/07/24 06:31:50;;;;;;;7.85;6.28;;;;;;;;;;143737;602;46023;-55
2021/07/24 06:34:17;;;;;;;12.20;6.50;;;;;;;;;;143737;588;46018;-53
2021/07/24 06:36:44;;;;;;;9.30;6.82;;;;;;;;;;143740;586;45022;-54
2021/07/24 06:39:11;;;;;;;13.07;6.10;;;;;;;;;;143734;577;46020;-53
2021/07/24 06:41:44;;;;;;;14.43;6.07;;;;;;;;;;143738;659;46023;-54
2021/07/24 06:44:11;;;;;;;12.50;6.53;;;;;;;;;;143739;577;46010;-54
2021/07/24 06:46:38;;;;;;;11.73;6.00;;;;;;;;;;143742;569;45023;-54
2021/07/24 06:49:05;;;;;;;12.60;6.15;;;;;;;;;;143733;592;48018;-54
2021/07/24 06:51:32;;;;;;;12.50;5.93;;;;;;;;;;143740;569;46022;-54
2021/07/24 06:53:59;;;;;;;9.30;5.78;;;;;;;;;;143739;646;46011;-54
2021/07/24 06:56:26;;;;;;;12.48;5.80;;;;;;;;;;143742;596;45023;-54
2021/07/24 06:58:53;;;;;;;13.60;6.60;;;;;;;;;;143741;594;46020;-54
2021/07/24 07:01:20;;;;;;;9.50;5.70;;;;;;;;;;143738;575;46023;-53
2021/07/24 07:03:47;;;;;;;13.50;6.03;;;;;;;;;;143736;627;46010;-54
2021/07/24 07:06:14;;;;;;;10.40;6.20;;;;;;;;;;143740;611;45022;-55
2021/07/24 07:08:41;;;;;;;9.95;6.20;;;;;;;;;;143743;618;46019;-53
2021/07/24 07:11:09;;;;;;;12.00;5.57;;;;;;;;;;143739;585;46023;-55
2021/07/24 07:13:36;;;;;;;14.93;6.72;;;;;;;;;;143739;594;46010;-52
2021/07/24 07:16:04;;;;;;;11.05;6.43;;;;;;;;;;143744;649;46022;-53
2021/07/24 07:18:31;;;;;;;11.50;5.43;;;;;;;;;;143742;599;46018;-54
2021/07/24 07:20:58;;;;;;;16.62;6.15;;;;;;;;;;143740;598;46022;-55
2021/07/24 07:23:25;;;;;;;10.35;6.00;;;;;;;;;;143739;631;46011;-55
2021/07/24 07:25:52;;;;;;;9.88;5.70;;;;;;;;;;143743;589;45023;-54
2021/07/24 07:28:19;;;;;;;11.07;7.28;;;;;;;;;;143735;589;46018;-55
2021/07/24 07:30:46;;;;;;;13.10;6.12;;;;;;;;;;143738;574;46023;-56
2021/07/24 07:33:13;;;;;;;10.20;7.05;;;;;;;;;;143739;650;46010;-55
2021/07/24 07:35:40;;;;;;;11.50;7.15;;;;;;;;;;143743;653;46022;-54
2021/07/24 07:38:07;;;;;;;12.55;6.97;;;;;;;;;;143742;605;46020;-55
2021/07/24 07:40:38;;;;;;;12.07;6.87;;;;;;;;;;143739;615;46022;-54
2021/07/24 07:43:08;;;;;;;11.48;7.12;;;;;;;;;;143738;587;46010;-54
2021/07/24 07:45:40;;;;;;;11.90;7.15;;;;;;;;;;143743;571;45023;-54
2021/07/24 07:48:08;;;;;;;14.07;7.10;;;;;;;;;;143743;601;46018;-55
2021/07/24 07:50:35;;;;;;;9.60;5.97;;;;;;;;;;143739;587;47010;-54
2021/07/24 07:53:03;;;;;;;15.02;7.80;;;;;;;;;;143733;591;46011;-53
2021/07/24 07:55:30;;;;;;;10.68;6.37;;;;;;;;;;143742;574;45023;-52
2021/07/24 07:57:57;;;;;;;9.70;5.80;;;;;;;;;;143741;596;46020;-54
2021/07/24 08:00:24;;;;;;;8.50;5.85;;;;;;;;;;143738;608;46022;-54
2021/07/24 08:02:54;;;;;;;11.57;6.30;;;;;;;;;;143741;585;46010;-54
2021/07/24 08:05:22;;;;;;;8.90;5.85;;;;;;;;;;143740;559;45022;-54
2021/07/24 08:07:49;;;;;;;11.23;5.82;;;;;;;;;;143740;650;47019;-55
2021/07/24 08:10:16;;;;;;;10.57;5.93;;;;;;;;;;143736;584;46023;-53
2021/07/24 08:12:43;;;;;;;11.82;7.30;;;;;;;;;;143740;575;46010;-54
2021/07/24 08:15:10;;;;;;;16.98;7.80;;;;;;;;;;143742;577;45022;-54
2021/07/24 08:17:37;;;;;;;9.30;6.10;;;;;;;;;;143734;589;46021;-55
2021/07/24 08:20:06;;;;;;;12.23;8.18;;;;;;;;;;143739;634;46022;-54
2021/07/24 08:22:33;;;;;;;12.20;6.45;;;;;;;;;;143740;614;46010;-55
2021/07/24 08:25:00;;;;;;;9.70;6.28;;;;;;;;;;143741;615;45023;-54
2021/07/24 08:27:27;;;;;;;9.95;6.40;;;;;;;;;;143739;582;47020;-55
2021/07/24 08:29:54;;;;;;;12.40;6.45;;;;;;;;;;143738;596;46022;-55
2021/07/24 08:32:21;;;;;;;9.88;5.75;;;;;;;;;;143737;564;46010;-55
2021/07/24 08:34:52;;;;;;;12.77;6.85;;;;;;;;;;143743;581;46022;-55
2021/07/24 08:37:19;;;;;;;8.45;6.15;;;;;;;;;;143743;567;46019;-55
2021/07/24 08:39:46;;;;;;;8.15;5.78;;;;;;;;;;143739;588;46023;-54
2021/07/24 08:42:30;;;;;;;9.98;6.00;;;;;;;;;;143734;598;46010;-54
2021/07/24 08:44:58;;;;;;;9.93;6.30;;;;;;;;;;143743;564;45023;-54
2021/07/24 08:47:25;;;;;;;9.82;6.15;;;;;;;;;;143741;613;46021;-54
2021/07/24 08:49:52;;;;;;;11.07;5.87;;;;;;;;;;143738;596;46022;-53
2021/07/24 08:52:20;;;;;;;11.52;6.15;;;;;;;;;;143740;588;46010;-53
2021/07/24 08:54:47;;;;;;;14.20;6.30;;;;;;;;;;143742;626;45023;-53
2021/07/24 08:57:20;;;;;;;11.88;5.62;;;;;;;;;;143741;570;46020;-53
2021/07/24 08:59:48;;;;;;;9.15;5.72;;;;;;;;;;143738;599;47011;-53
2021/07/24 09:02:24;;;;;;;12.43;5.28;;;;;;;;;;143739;654;46010;-53
2021/07/24 09:04:54;;;;;;;8.15;5.50;;;;;;;;;;143741;564;46022;-54
2021/07/24 09:07:22;;;;;;;14.52;6.15;;;;;;;;;;143735;612;46019;-54
2021/07/24 09:09:50;;;;;;;8.50;5.18;;;;;;;;;;143739;619;46023;-55
2021/07/24 09:12:17;;;;;;;7.15;4.65;;;;;;;;;;143742;570;46010;-55
2021/07/24 09:14:44;;;;;;;9.45;5.18;;;;;;;;;;143744;569;45022;-55
2021/07/24 09:17:17;;;;;;;17.37;5.18;;;;;;;;;;143743;603;46021;-53
2021/07/24 09:19:44;;;;;;;8.65;5.40;;;;;;;;;;143739;610;46022;-56
2021/07/24 09:22:33;;;;;;;11.20;5.45;;;;;;;;;;143740;584;46010;-54
2021/07/24 09:25:14;;;;;;;15.00;4.93;;;;;;;;;;143745;613;45023;-55
2021/07/24 09:28:09;;;;;;;7.15;4.57;;;;;;;;;;143742;565;46020;-55
2021/07/24 09:30:38;;;;;;;7.70;4.95;;;;;;;;;;143740;631;46023;-54
2021/07/24 09:33:12;;;;;;;13.18;8.13;;;;;;;;;;143735;565;46010;-54
2021/07/24 09:35:53;;;;;;;12.05;5.90;;;;;;;;;;143742;609;45022;-54
2021/07/24 09:38:33;;;;;;;9.73;6.20;;;;;;;;;;143743;645;46020;-54
2021/07/24 09:41:05;;;;;;;12.37;5.60;;;;;;;;;;143739;643;46022;-53
2021/07/24 09:43:40;;;;;;;10.07;5.68;;;;;;;;;;143740;564;46010;-53
2021/07/24 09:46:32;;;;;;;14.23;5.53;;;;;;;;;;143743;571;46023;-53
2021/07/24 09:49:12;;;;;;;10.50;5.12;;;;;;;;;;143742;617;46022;-54
2021/07/24 09:51:45;;;;;;;8.48;5.35;;;;;;;;;;143739;608;46022;-53
2021/07/24 09:54:28;;;;;;;9.70;5.55;;;;;;;;;;143738;564;46010;-54
2021/07/24 09:56:56;;;;;;;8.73;5.82;;;;;;;;;;143743;598;45022;-53
2021/07/24 09:59:30;;;;;;;9.43;5.57;;;;;;;;;;143735;596;46020;-53
2021/07/24 10:02:05;;;;;;;9.43;5.57;;;;;;;;;;143741;613;46023;-53
2021/07/24 10:04:34;;;;;;;11.25;6.50;;;;;;;;;;143741;594;46010;-53
2021/07/24 10:07:06;;;;;;;8.90;5.20;;;;;;;;;;143743;603;46022;-53
2021/07/24 10:09:34;;;;;;;8.85;5.28;;;;;;;;;;143743;718;46018;-52
2021/07/24 10:12:03;;;;;;;11.82;5.32;;;;;;;;;;143740;619;46022;-54
2021/07/24 10:14:30;;;;;;;8.15;5.20;;;;;;;;;;143740;656;46010;-54
2021/07/24 10:16:59;;;;;;;10.70;5.30;;;;;;;;;;143743;615;46023;-54
2021/07/24 10:19:27;;;;;;;8.25;4.95;;;;;;;;;;143743;589;46020;-54
2021/07/24 10:21:57;;;;;;;7.68;5.43;;;;;;;;;;143740;665;46022;-53
2021/07/24 10:24:24;;;;;;;7.60;4.78;;;;;;;;;;143735;583;46010;-54
2021/07/24 10:27:12;;;;;;;8.77;5.10;;;;;;;;;;143743;571;45022;-54
2021/07/24 10:30:00;;;;;;;9.30;4.50;;;;;;;;;;143744;612;46019;-53
2021/07/24 10:32:30;;;;;;;9.00;4.85;;;;;;;;;;143739;571;46023;-55
2021/07/24 10:34:57;;;;;;;10.50;4.95;;;;;;;;;;143740;576;46010;-54
2021/07/24 10:37:44;;;;;;;10.25;4.80;;;;;;;;;;143745;613;46022;-55
2021/07/24 10:40:36;;;;;;;8.38;5.15;;;;;;;;;;143742;600;46021;-55
2021/07/24 10:43:06;;;;;;;10.98;5.00;;;;;;;;;;143741;569;46022;-55
2021/07/24 10:45:52;;;;;;;11.18;4.65;;;;;;;;;;143741;589;46010;-54
2021/07/24 10:48:20;;;;;;;9.25;5.00;;;;;;;;;;143743;571;45024;-54
2021/07/24 10:51:16;;;;;;;9.98;5.32;;;;;;;;;;143736;621;46020;-54
2021/07/24 10:54:05;;;;;;;9.82;5.07;;;;;;;;;;143741;603;46023;-53
2021/07/24 10:56:40;;;;;;;9.80;4.82;;;;;;;;;;143741;576;46010;-54
2021/07/24 10:59:45;;;;;;;7.75;4.72;;;;;;;;;;143744;624;46022;-54
2021/07/24 11:02:14;;;;;;;9.95;5.50;;;;;;;;;;143744;566;46018;-54
2021/07/24 11:04:43;;;;;;;10.63;5.22;;;;;;;;;;143742;697;46022;-54
2021/07/24 11:07:46;;;;;;;8.63;4.97;;;;;;;;;;143742;601;46011;-53
2021/07/24 11:10:13;;;;;;;7.00;4.90;;;;;;;;;;143745;594;46022;-54
2021/07/24 11:12:41;;;;;;;10.60;5.15;;;;;;;;;;143743;591;46020;-53
2021/07/24 11:15:40;;;;;;;10.65;4.90;;;;;;;;;;143740;629;46023;-53
2021/07/24 11:18:26;;;;;;;8.30;5.20;;;;;;;;;;143734;564;46010;-54
2021/07/24 11:20:54;;;;;;;6.68;5.10;;;;;;;;;;143738;594;46022;-55
2021/07/24 11:23:21;;;;;;;9.45;4.97;;;;;;;;;;143730;564;46019;-54
2021/07/24 11:25:48;;;;;;;9.63;5.47;;;;;;;;;;143728;608;46022;-54
2021/07/24 11:28:21;;;;;;;9.20;5.43;;;;;;;;;;143726;598;46010;-54
2021/07/24 11:31:02;;;;;;;11.65;5.15;;;;;;;;;;143730;597;46023;-55
2021/07/24 11:33:30;;;;;;;8.65;5.18;;;;;;;;;;143726;663;47020;-55
2021/07/24 11:36:09;;;;;;;10.68;5.12;;;;;;;;;;143727;579;46022;-54
2021/07/24 11:38:37;;;;;;;6.95;4.87;;;;;;;;;;143729;649;46010;-54
2021/07/24 11:41:06;;;;;;;7.62;5.20;;;;;;;;;;143728;627;46012;-55
2021/07/24 11:43:33;;;;;;;10.85;5.68;;;;;;;;;;143730;564;46020;-54
2021/07/24 11:46:03;;;;;;;7.70;5.18;;;;;;;;;;143727;586;46023;-54
2021/07/24 11:48:31;;;;;;;13.48;4.97;;;;;;;;;;143726;634;46018;-54
2021/07/24 11:51:08;;;;;;;12.23;5.22;;;;;;;;;;143729;642;46013;-54
2021/07/24 11:53:36;;;;;;;8.98;5.70;;;;;;;;;;143729;594;46021;-53
2021/07/24 11:56:04;;;;;;;7.28;5.35;;;;;;;;;;143727;602;46022;-53
2021/07/24 11:58:31;;;;;;;13.23;5.80;;;;;;;;;;143727;569;46018;-53
2021/07/24 12:01:00;;;;;;;7.03;5.00;;;;;;;;;;143727;591;46023;-53
2021/07/24 12:03:30;;;;;;;11.68;5.05;;;;;;;;;;143728;579;46914;-54
2021/07/24 12:06:09;;;;;;;9.88;5.45;;;;;;;;;;143728;591;46022;-54
2021/07/24 12:08:38;;;;;;;8.20;5.97;;;;;;;;;;143729;576;46010;-54
2021/07/24 12:11:11;;;;;;;8.30;5.40;;;;;;;;;;143730;585;46012;-53
2021/07/24 12:13:38;;;;;;;9.43;5.62;;;;;;;;;;143729;566;46020;-53
2021/07/24 12:16:09;;;;;;;8.18;5.43;;;;;;;;;;143723;605;47010;-54
2021/07/24 12:18:50;;;;;;;7.97;5.25;;;;;;;;;;143728;614;46010;-55
2021/07/24 12:21:31;;;;;;;8.75;5.00;;;;;;;;;;143739;605;46022;-55
2021/07/24 12:24:05;;;;;;;9.73;5.25;;;;;;;;;;143745;594;46018;-54
2021/07/24 12:26:34;;;;;;;10.82;5.20;;;;;;;;;;143741;613;46022;-53
2021/07/24 12:29:21;;;;;;;6.80;4.93;;;;;;;;;;143742;564;46010;-55
2021/07/24 12:31:53;;;;;;;9.02;5.55;;;;;;;;;;143743;573;45023;-53
2021/07/24 12:34:24;;;;;;;8.70;5.53;;;;;;;;;;143735;569;46020;-53
2021/07/24 12:36:59;;;;;;;10.95;5.32;;;;;;;;;;143742;595;46023;-54
2021/07/24 12:39:32;;;;;;;11.23;5.32;;;;;;;;;;143741;579;46010;-55
2021/07/24 12:42:06;;;;;;;7.30;4.97;;;;;;;;;;143744;582;45022;-53
2021/07/24 12:45:26;;;;;;;8.50;5.40;;;;;;;;;;143745;627;46020;-53
2021/07/24 12:47:53;;;;;;;9.13;5.57;;;;;;;;;;143742;608;46022;-54
2021/07/24 12:50:21;;;;;;;7.15;5.25;;;;;;;;;;143740;579;46013;-54
2021/07/24 12:52:50;;;;;;;7.68;5.18;;;;;;;;;;143746;589;45023;-55
2021/07/24 12:55:20;;;;;;;8.73;5.57;;;;;;;;;;143740;564;47020;-55
2021/07/24 12:57:48;;;;;;;6.80;5.12;;;;;;;;;;143742;603;46022;-53
2021/07/24 13:00:20;;;;;;;7.37;5.30;;;;;;;;;;143736;601;46010;-54
2021/07/24 13:02:47;;;;;;;10.50;5.37;;;;;;;;;;143745;566;45022;-54
2021/07/24 13:05:19;;;;;;;10.80;5.05;;;;;;;;;;143743;580;46020;-53
2021/07/24 13:07:48;;;;;;;7.05;5.22;;;;;;;;;;143742;608;46023;-54
2021/07/24 13:10:15;;;;;;;9.05;5.00;;;;;;;;;;143738;566;48018;-53
2021/07/24 13:12:43;;;;;;;10.60;5.65;;;;;;;;;;143746;582;45022;-54
2021/07/24 13:15:13;;;;;;;8.20;5.45;;;;;;;;;;143744;581;46021;-55
2021/07/24 13:17:40;;;;;;;7.25;5.30;;;;;;;;;;143739;585;46022;-54
2021/07/24 13:20:07;;;;;;;7.40;5.28;;;;;;;;;;143742;596;46010;-54
2021/07/24 13:22:34;;;;;;;8.63;5.75;;;;;;;;;;143742;588;46023;-54
2021/07/24 13:30:37;;;;;;;8.50;5.35;;;;;;;;;;143744;593;46010;-54
2021/07/24 13:33:04;;;;;;;12.00;5.85;;;;;;;;;;143743;572;46022;-53
2021/07/24 13:35:31;;;;;;;7.37;5.05;;;;;;;;;;143742;572;47019;-53
2021/07/24 13:37:59;;;;;;;9.73;5.10;;;;;;;;;;143741;631;46023;-54
2021/07/24 13:40:26;;;;;;;7.95;4.87;;;;;;;;;;143741;603;46010;-53
2021/07/24 13:42:53;;;;;;;13.05;5.45;;;;;;;;;;143746;564;45023;-54
2021/07/24 13:45:21;;;;;;;8.52;5.60;;;;;;;;;;143743;610;46021;-54
2021/07/24 13:47:48;;;;;;;9.15;6.03;;;;;;;;;;143741;608;46022;-54
2021/07/24 13:50:15;;;;;;;6.57;5.10;;;;;;;;;;143737;570;46010;-53
2021/07/24 13:52:42;;;;;;;10.80;5.40;;;;;;;;;;143744;602;45023;-54
2021/07/24 13:55:09;;;;;;;7.72;5.12;;;;;;;;;;143742;690;46020;-54
2021/07/24 13:57:37;;;;;;;10.02;5.20;;;;;;;;;;143740;580;46022;-53
2021/07/24 14:00:05;;;;;;;8.63;5.03;;;;;;;;;;143740;564;46010;-54
2021/07/24 14:02:33;;;;;;;8.45;5.37;;;;;;;;;;143749;666;45022;-53
2021/07/24 14:05:01;;;;;;;8.35;5.35;;;;;;;;;;143743;588;46020;-53
2021/07/24 14:07:28;;;;;;;8.25;5.70;;;;;;;;;;143742;587;46022;-54
2021/07/24 14:09:59;;;;;;;8.05;6.32;;;;;;;;;;143741;630;46010;-54
2021/07/24 14:12:26;;;;;;;8.68;6.95;;;;;;;;;;143747;579;46022;-54
2021/07/24 14:14:54;;;;;;;11.18;6.05;;;;;;;;;;143735;569;46021;-54
2021/07/24 14:17:21;;;;;;;9.45;6.47;;;;;;;;;;143741;569;46022;-53
2021/07/24 14:19:49;;;;;;;10.15;6.20;;;;;;;;;;143741;676;46010;-54
2021/07/24 14:22:16;;;;;;;10.18;6.35;;;;;;;;;;143744;578;46023;-53
2021/07/24 14:24:43;;;;;;;9.30;5.50;;;;;;;;;;143743;587;46020;-54
2021/07/24 14:27:10;;;;;;;9.73;5.40;;;;;;;;;;143740;599;46022;-53
2021/07/24 14:29:37;;;;;;;7.47;5.57;;;;;;;;;;143741;612;46010;-53
2021/07/24 14:32:06;;;;;;;8.65;5.90;;;;;;;;;;143740;564;45022;-54
2021/07/24 14:34:33;;;;;;;8.63;5.82;;;;;;;;;;143732;568;47018;-54
2021/07/24 14:37:01;;;;;;;8.88;5.60;;;;;;;;;;143740;589;46023;-54
2021/07/24 14:39:28;;;;;;;8.02;5.45;;;;;;;;;;143736;659;46010;-54
2021/07/24 14:41:55;;;;;;;7.82;5.22;;;;;;;;;;143744;564;45022;-54
2021/07/24 14:44:23;;;;;;;7.25;5.55;;;;;;;;;;143743;575;46021;-54
2021/07/24 14:46:50;;;;;;;7.95;6.28;;;;;;;;;;143742;584;46022;-54
2021/07/24 14:49:17;;;;;;;12.10;6.85;;;;;;;;;;143742;599;46010;-53
2021/07/24 14:51:44;;;;;;;8.98;7.00;;;;;;;;;;143744;668;45023;-54
2021/07/24 14:54:11;;;;;;;11.75;6.43;;;;;;;;;;143743;565;47018;-55
2021/07/24 14:56:38;;;;;;;11.30;6.80;;;;;;;;;;143741;569;46022;-54